GYE weather

José Joaquín de Olmedo International Airport
Guayaquil, Guayas Province, Ecuador

Public forecast

Using degrees Celsius for public forecast. Weather courtesy of forecast.io.

METAR (pilot weather report)

Retrieved 2019/05/24 02:00 UTC (19 minutes ago):

SEGU 240200Z 25007KT 230V290 9999 SCT026 SCT100 27/22 Q1011 NOSIG RMK A2986

TAF (pilot weather forecast)

Forecast is more than 12 hours old.

Retrieved 2019/05/23 00:00 UTC (1 day ago):

TAF TAF SEGU 232240Z 2400/2424 24007KT 9999 BKN020 BKN090 FM241400 06005KT 9999 SCT026 BKN100 TX31/2420Z TN24/2410Z